Time,TemperatureF,DewpointF,PressureIn,WindDirection,WindDirectionDegrees,WindSpeedMPH,WindSpeedGustMPH,Humidity,HourlyPrecipIn,Conditions,Clouds,dailyrainin,SolarRadiationWatts/m^2,SoftwareType,DateUTC
2013-04-18 00:09:00,48.3,47.0,29.81,East,93,5.0,11.0,94,0.00,,,0.00,0,weatherlink.com 1.10,2013-04-18 04:09:00,
2013-04-18 00:25:00,47.4,45.0,29.80,ESE,118,4.0,17.0,92,0.00,,,0.00,0,weatherlink.com 1.10,2013-04-18 04:25:00,
2013-04-18 00:39:00,47.0,45.0,29.79,East,101,7.0,13.0,92,0.00,,,0.00,0,weatherlink.com 1.10,2013-04-18 04:39:00,
2013-04-18 00:55:00,46.9,45.0,29.78,East,86,5.0,12.0,92,0.00,,,0.00,0,weatherlink.com 1.10,2013-04-18 04:55:00,
2013-04-18 01:09:00,46.9,45.0,29.77,ESE,104,3.0,11.0,92,0.00,,,0.00,0,weatherlink.com 1.10,2013-04-18 05:09:00,
2013-04-18 01:25:00,47.4,45.0,29.77,ESE,123,14.0,15.0,92,0.00,,,0.00,0,weatherlink.com 1.10,2013-04-18 05:25:00,
2013-04-18 01:40:00,47.9,46.0,29.76,SE,131,8.0,13.0,92,0.00,,,0.00,0,weatherlink.com 1.10,2013-04-18 05:40:00,
2013-04-18 01:55:00,48.3,46.0,29.75,SE,125,2.0,13.0,93,0.00,,,0.00,0,weatherlink.com 1.10,2013-04-18 05:55:00,
2013-04-18 02:10:00,48.8,47.0,29.73,SSE,156,8.0,13.0,93,0.00,,,0.00,0,weatherlink.com 1.10,2013-04-18 06:10:00,
2013-04-18 02:25:00,49.5,48.0,29.72,SE,126,6.0,17.0,93,0.00,,,0.00,0,weatherlink.com 1.10,2013-04-18 06:25:00,
2013-04-18 02:40:00,49.7,48.0,29.70,SE,124,2.0,13.0,94,0.00,,,0.00,0,weatherlink.com 1.10,2013-04-18 06:40:00,
2013-04-18 02:55:00,50.1,48.0,29.69,SE,127,7.0,14.0,93,0.00,,,0.00,0,weatherlink.com 1.10,2013-04-18 06:55:00,
2013-04-18 03:10:00,50.5,49.0,29.68,ESE,122,8.0,17.0,93,0.00,,,0.00,0,weatherlink.com 1.10,2013-04-18 07:10:00,
2013-04-18 03:26:00,51.0,49.0,29.67,ESE,123,12.0,16.0,93,0.00,,,0.00,0,weatherlink.com 1.10,2013-04-18 07:26:00,
2013-04-18 03:56:00,51.9,50.0,29.66,ESE,123,8.0,14.0,93,0.00,,,0.00,0,weatherlink.com 1.10,2013-04-18 07:56:00,
2013-04-18 04:11:00,52.4,51.0,29.66,SSE,156,4.0,10.0,93,0.00,,,0.00,0,weatherlink.com 1.10,2013-04-18 08:11:00,
2013-04-18 04:42:00,53.9,52.0,29.65,SSE,147,6.0,11.0,93,0.00,,,0.00,0,weatherlink.com 1.10,2013-04-18 08:42:00,
2013-04-18 04:56:00,55.4,54.0,29.64,South,171,2.0,14.0,93,0.00,,,0.00,0,weatherlink.com 1.10,2013-04-18 08:56:00,
2013-04-18 05:12:00,56.8,55.0,29.64,SSE,153,4.0,8.0,92,0.00,,,0.00,0,weatherlink.com 1.10,2013-04-18 09:12:00,
2013-04-18 05:27:00,57.1,55.0,29.63,SE,134,6.0,11.0,92,0.00,,,0.00,0,weatherlink.com 1.10,2013-04-18 09:27:00,
2013-04-18 05:42:00,57.5,55.0,29.62,SE,139,4.0,9.0,92,0.00,,,0.00,0,weatherlink.com 1.10,2013-04-18 09:42:00,
2013-04-18 05:57:00,58.5,56.0,29.61,SSE,159,5.0,8.0,92,0.00,,,0.00,0,weatherlink.com 1.10,2013-04-18 09:57:00,
2013-04-18 06:12:00,59.4,57.0,29.60,SSW,207,6.0,9.0,92,0.00,,,0.00,0,weatherlink.com 1.10,2013-04-18 10:12:00,
2013-04-18 06:28:00,60.0,57.0,29.60,SSE,149,5.0,10.0,91,0.00,,,0.00,0,weatherlink.com 1.10,2013-04-18 10:28:00,
2013-04-18 06:42:00,60.2,58.0,29.59,SSE,161,4.0,11.0,91,0.00,,,0.00,0,weatherlink.com 1.10,2013-04-18 10:42:00,
2013-04-18 06:58:00,60.2,58.0,29.59,SSE,147,1.0,10.0,91,0.00,,,0.00,0,weatherlink.com 1.10,2013-04-18 10:58:00,
2013-04-18 07:13:00,60.7,58.0,29.58,SE,137,9.0,10.0,92,0.00,,,0.00,12,weatherlink.com 1.10,2013-04-18 11:13:00,
2013-04-18 07:28:00,61.6,59.0,29.58,SE,145,6.0,10.0,92,0.00,,,0.00,26,weatherlink.com 1.10,2013-04-18 11:28:00,
2013-04-18 07:43:00,63.5,61.0,29.58,SSE,152,5.0,13.0,90,0.00,,,0.00,39,weatherlink.com 1.10,2013-04-18 11:43:00,
2013-04-18 07:58:00,64.9,61.0,29.58,South,175,6.0,16.0,88,0.00,,,0.00,62,weatherlink.com 1.10,2013-04-18 11:58:00,
2013-04-18 08:13:00,65.6,62.0,29.57,SW,234,6.0,18.0,88,0.00,,,0.00,116,weatherlink.com 1.10,2013-04-18 12:13:00,
2013-04-18 08:29:00,66.4,63.0,29.55,SSE,166,11.0,16.0,87,0.00,,,0.00,188,weatherlink.com 1.10,2013-04-18 12:29:00,
2013-04-18 08:44:00,67.1,63.0,29.54,SSW,204,5.0,19.0,86,0.00,,,0.00,220,weatherlink.com 1.10,2013-04-18 12:44:00,
2013-04-18 08:59:00,67.7,63.0,29.53,SW,227,7.0,20.0,86,0.00,,,0.00,188,weatherlink.com 1.10,2013-04-18 12:59:00,
2013-04-18 09:14:00,68.2,64.0,29.52,SSE,158,11.0,19.0,85,0.00,,,0.00,183,weatherlink.com 1.10,2013-04-18 13:14:00,
2013-04-18 09:29:00,68.6,64.0,29.53,South,184,10.0,20.0,85,0.00,,,0.00,178,weatherlink.com 1.10,2013-04-18 13:29:00,
2013-04-18 09:44:00,69.0,64.0,29.53,West,266,9.0,18.0,84,0.00,,,0.00,172,weatherlink.com 1.10,2013-04-18 13:44:00,
2013-04-18 09:59:00,69.5,65.0,29.52,SE,144,7.0,17.0,84,0.00,,,0.00,234,weatherlink.com 1.10,2013-04-18 13:59:00,
2013-04-18 10:15:00,70.0,65.0,29.51,SSW,197,17.0,22.0,84,0.00,,,0.00,56,weatherlink.com 1.10,2013-04-18 14:15:00,
2013-04-18 10:30:00,70.3,65.0,29.50,SSW,209,15.0,22.0,83,0.00,,,0.00,111,weatherlink.com 1.10,2013-04-18 14:30:00,
2013-04-18 10:45:00,70.8,65.0,29.50,SSW,201,17.0,22.0,82,0.00,,,0.00,42,weatherlink.com 1.10,2013-04-18 14:45:00,
2013-04-18 11:00:00,71.1,66.0,29.51,SW,233,19.0,22.0,83,0.10,,,0.10,37,weatherlink.com 1.10,2013-04-18 15:00:00,
2013-04-18 11:15:00,68.5,64.0,29.52,SW,220,22.0,22.0,86,0.17,,,0.17,192,weatherlink.com 1.10,2013-04-18 15:15:00,
2013-04-18 11:30:00,67.2,63.0,29.54,SSW,208,10.0,18.0,86,0.17,,,0.17,114,weatherlink.com 1.10,2013-04-18 15:30:00,
2013-04-18 11:45:00,64.5,62.0,29.55,SW,222,16.0,19.0,90,0.18,,,0.18,42,weatherlink.com 1.10,2013-04-18 15:45:00,
2013-04-18 12:00:00,63.0,61.0,29.55,South,186,7.0,21.0,92,0.08,,,0.19,91,weatherlink.com 1.10,2013-04-18 16:00:00,
2013-04-18 12:15:00,62.7,60.0,29.55,SW,220,10.0,15.0,91,0.03,,,0.20,178,weatherlink.com 1.10,2013-04-18 16:15:00,
2013-04-18 12:31:00,62.5,60.0,29.56,SW,215,9.0,13.0,92,0.03,,,0.20,62,weatherlink.com 1.10,2013-04-18 16:31:00,
2013-04-18 12:46:00,62.3,60.0,29.56,SW,223,5.0,13.0,92,0.03,,,0.21,142,weatherlink.com 1.10,2013-04-18 16:46:00,
2013-04-18 13:16:00,62.0,60.0,29.56,South,182,4.0,14.0,92,0.02,,,0.22,76,weatherlink.com 1.10,2013-04-18 17:16:00,
2013-04-18 13:31:00,61.8,60.0,29.56,SW,217,8.0,9.0,93,0.04,,,0.24,204,weatherlink.com 1.10,2013-04-18 17:31:00,
2013-04-18 13:46:00,62.0,60.0,29.55,SSW,208,6.0,11.0,93,0.03,,,0.24,100,weatherlink.com 1.10,2013-04-18 17:46:00,
2013-04-18 14:01:00,62.1,60.0,29.57,SSW,197,4.0,14.0,93,0.03,,,0.24,121,weatherlink.com 1.10,2013-04-18 18:01:00,
2013-04-18 14:16:00,62.1,60.0,29.58,SW,220,7.0,15.0,94,0.02,,,0.24,116,weatherlink.com 1.10,2013-04-18 18:16:00,
2013-04-18 14:31:00,62.1,60.0,29.57,SSW,198,4.0,15.0,94,0.01,,,0.25,146,weatherlink.com 1.10,2013-04-18 18:31:00,
2013-04-18 15:02:00,61.9,60.0,29.58,SSE,167,4.0,12.0,94,0.06,,,0.30,83,weatherlink.com 1.10,2013-04-18 19:02:00,
2013-04-18 15:17:00,61.7,60.0,29.57,WSW,238,1.0,14.0,94,0.09,,,0.33,120,weatherlink.com 1.10,2013-04-18 19:17:00,
2013-04-18 15:33:00,61.9,61.0,29.58,South,181,2.0,14.0,95,0.10,,,0.35,207,weatherlink.com 1.10,2013-04-18 19:33:00,
2013-04-18 15:47:00,61.9,61.0,29.57,WNW,283,3.0,15.0,95,0.09,,,0.36,90,weatherlink.com 1.10,2013-04-18 19:47:00,
2013-04-18 16:02:00,61.5,60.0,29.56,SSW,204,6.0,15.0,94,0.08,,,0.38,60,weatherlink.com 1.10,2013-04-18 20:02:00,
2013-04-18 16:17:00,61.1,60.0,29.57,SSE,167,6.0,10.0,95,0.08,,,0.42,91,weatherlink.com 1.10,2013-04-18 20:17:00,
2013-04-18 16:32:00,60.9,60.0,29.57,South,189,11.0,11.0,95,0.09,,,0.44,32,weatherlink.com 1.10,2013-04-18 20:32:00,
2013-04-18 16:47:00,60.7,59.0,29.56,South,185,4.0,11.0,95,0.10,,,0.46,62,weatherlink.com 1.10,2013-04-18 20:47:00,
2013-04-18 17:03:00,60.4,59.0,29.58,SSW,206,7.0,14.0,95,0.12,,,0.51,35,weatherlink.com 1.10,2013-04-18 21:03:00,
2013-04-18 17:18:00,60.2,59.0,29.56,SW,226,6.0,11.0,95,0.14,,,0.56,62,weatherlink.com 1.10,2013-04-18 21:18:00,
2013-04-18 17:33:00,60.1,59.0,29.55,South,189,2.0,10.0,95,0.14,,,0.58,54,weatherlink.com 1.10,2013-04-18 21:33:00,
2013-04-18 17:48:00,60.0,59.0,29.56,South,190,6.0,11.0,96,0.13,,,0.60,39,weatherlink.com 1.10,2013-04-18 21:48:00,
2013-04-18 18:03:00,60.0,59.0,29.55,SW,235,0.0,12.0,96,0.11,,,0.62,35,weatherlink.com 1.10,2013-04-18 22:03:00,
2013-04-18 18:18:00,60.0,59.0,29.54,South,170,5.0,9.0,96,0.08,,,0.64,37,weatherlink.com 1.10,2013-04-18 22:18:00,
2013-04-18 18:33:00,60.0,59.0,29.55,South,182,7.0,9.0,96,0.06,,,0.64,37,weatherlink.com 1.10,2013-04-18 22:33:00,
2013-04-18 18:48:00,60.0,59.0,29.57,South,171,3.0,14.0,96,0.05,,,0.65,23,weatherlink.com 1.10,2013-04-18 22:48:00,
2013-04-18 19:03:00,60.0,59.0,29.56,South,185,3.0,11.0,96,0.04,,,0.66,18,weatherlink.com 1.10,2013-04-18 23:03:00,
2013-04-18 19:18:00,60.0,59.0,29.52,SSE,154,3.0,9.0,96,0.04,,,0.68,16,weatherlink.com 1.10,2013-04-18 23:18:00,
2013-04-18 19:34:00,59.8,59.0,29.51,SE,133,8.0,9.0,96,0.05,,,0.69,11,weatherlink.com 1.10,2013-04-18 23:34:00,
2013-04-18 19:49:00,59.7,59.0,29.50,SE,141,6.0,13.0,96,0.05,,,0.70,11,weatherlink.com 1.10,2013-04-18 23:49:00,
2013-04-18 20:04:00,59.6,59.0,29.48,ESE,114,11.0,13.0,96,0.04,,,0.70,9,weatherlink.com 1.10,2013-04-19 00:04:00,
2013-04-18 20:19:00,59.4,58.0,29.49,South,172,5.0,14.0,96,0.02,,,0.70,0,weatherlink.com 1.10,2013-04-19 00:19:00,
2013-04-18 20:35:00,59.3,58.0,29.48,South,185,7.0,16.0,96,0.02,,,0.71,0,weatherlink.com 1.10,2013-04-19 00:35:00,
2013-04-18 20:49:00,59.2,58.0,29.48,SE,127,13.0,15.0,96,0.02,,,0.72,0,weatherlink.com 1.10,2013-04-19 00:49:00,
2013-04-18 21:04:00,59.1,58.0,29.48,SE,125,10.0,16.0,96,0.02,,,0.72,0,weatherlink.com 1.10,2013-04-19 01:04:00,
2013-04-18 21:19:00,59.1,58.0,29.48,SSE,156,8.0,17.0,96,0.03,,,0.73,0,weatherlink.com 1.10,2013-04-19 01:19:00,
2013-04-18 21:34:00,59.1,58.0,29.49,SE,132,13.0,15.0,96,0.05,,,0.76,0,weatherlink.com 1.10,2013-04-19 01:34:00,
2013-04-18 21:50:00,59.2,58.0,29.47,ESE,104,9.0,20.0,96,0.09,,,0.81,0,weatherlink.com 1.10,2013-04-19 01:50:00,
2013-04-18 22:05:00,59.3,58.0,29.46,SSE,167,5.0,16.0,96,0.11,,,0.83,0,weatherlink.com 1.10,2013-04-19 02:05:00,
2013-04-18 22:20:00,59.3,58.0,29.46,ESE,122,11.0,15.0,96,0.13,,,0.86,0,weatherlink.com 1.10,2013-04-19 02:20:00,
2013-04-18 22:35:00,59.3,58.0,29.45,SSE,151,7.0,14.0,96,0.13,,,0.89,0,weatherlink.com 1.10,2013-04-19 02:35:00,
2013-04-18 22:50:00,59.3,58.0,29.44,SE,139,12.0,16.0,96,0.11,,,0.92,0,weatherlink.com 1.10,2013-04-19 02:50:00,
2013-04-18 23:05:00,59.3,59.0,29.44,South,178,4.0,12.0,97,0.14,,,0.97,0,weatherlink.com 1.10,2013-04-19 03:05:00,
2013-04-18 23:20:00,59.4,59.0,29.44,SW,224,3.0,16.0,97,0.15,,,1.01,0,weatherlink.com 1.10,2013-04-19 03:20:00,
2013-04-18 23:35:00,57.5,56.0,29.44,WSW,239,9.0,22.0,93,0.16,,,1.05,0,weatherlink.com 1.10,2013-04-19 03:35:00,
2013-04-18 23:51:00,55.2,54.0,29.45,West,269,3.0,17.0,94,0.21,,,1.13,0,weatherlink.com 1.10,2013-04-19 03:51:00,